sensor_id;sensor_type;location;lat;lon;timestamp;pressure;altitude;pressure_sealevel;temperature;humidity
54389;BME280;40975;50.390;8.640;2023-05-21T00:00:42;99005.91;;;13.18;100.00
54389;BME280;40975;50.390;8.640;2023-05-21T00:03:07;98998.25;;;13.23;100.00
54389;BME280;40975;50.390;8.640;2023-05-21T00:05:39;98997.41;;;13.22;100.00
54389;BME280;40975;50.390;8.640;2023-05-21T00:08:05;98997.91;;;13.18;100.00
54389;BME280;40975;50.390;8.640;2023-05-21T00:10:30;98995.09;;;13.11;100.00
54389;BME280;40975;50.390;8.640;2023-05-21T00:12:55;99002.41;;;13.09;100.00
54389;BME280;40975;50.390;8.640;2023-05-21T00:15:21;98994.91;;;13.13;100.00
54389;BME280;40975;50.390;8.640;2023-05-21T00:17:46;98997.44;;;13.06;100.00
54389;BME280;40975;50.390;8.640;2023-05-21T00:20:11;98993.91;;;13.05;100.00
54389;BME280;40975;50.390;8.640;2023-05-21T00:22:37;98996.56;;;13.05;100.00
54389;BME280;40975;50.390;8.640;2023-05-21T00:25:03;98991.25;;;13.05;100.00
54389;BME280;40975;50.390;8.640;2023-05-21T00:27:28;98987.25;;;13.10;100.00
54389;BME280;40975;50.390;8.640;2023-05-21T00:29:53;98982.75;;;13.02;100.00
54389;BME280;40975;50.390;8.640;2023-05-21T00:32:19;98982.59;;;13.03;100.00
54389;BME280;40975;50.390;8.640;2023-05-21T00:34:45;98977.59;;;13.00;100.00
54389;BME280;40975;50.390;8.640;2023-05-21T00:37:11;98973.28;;;12.99;100.00
54389;BME280;40975;50.390;8.640;2023-05-21T00:39:39;98981.44;;;13.06;100.00
54389;BME280;40975;50.390;8.640;2023-05-21T00:42:05;98981.09;;;13.09;100.00
54389;BME280;40975;50.390;8.640;2023-05-21T00:44:31;98967.63;;;13.11;100.00
54389;BME280;40975;50.390;8.640;2023-05-21T00:47:02;98965.94;;;13.01;100.00
54389;BME280;40975;50.390;8.640;2023-05-21T00:49:28;98969.94;;;13.05;100.00
54389;BME280;40975;50.390;8.640;2023-05-21T00:51:54;98969.63;;;13.00;100.00
54389;BME280;40975;50.390;8.640;2023-05-21T00:54:20;98962.28;;;13.02;100.00
54389;BME280;40975;50.390;8.640;2023-05-21T00:56:47;98963.63;;;12.98;100.00
54389;BME280;40975;50.390;8.640;2023-05-21T00:59:15;98968.09;;;12.98;100.00
54389;BME280;40975;50.390;8.640;2023-05-21T01:01:42;98961.44;;;12.94;100.00
54389;BME280;40975;50.390;8.640;2023-05-21T01:04:10;98972.91;;;12.94;100.00
54389;BME280;40975;50.390;8.640;2023-05-21T01:06:35;98965.09;;;12.93;100.00
54389;BME280;40975;50.390;8.640;2023-05-21T01:09:02;98939.78;;;12.88;100.00
54389;BME280;40975;50.390;8.640;2023-05-21T01:11:36;98956.78;;;12.96;100.00
54389;BME280;40975;50.390;8.640;2023-05-21T01:14:04;98954.78;;;12.98;100.00
54389;BME280;40975;50.390;8.640;2023-05-21T01:16:35;98955.94;;;13.03;100.00
54389;BME280;40975;50.390;8.640;2023-05-21T01:19:01;98948.81;;;13.04;100.00
54389;BME280;40975;50.390;8.640;2023-05-21T01:21:28;98950.13;;;13.00;100.00
54389;BME280;40975;50.390;8.640;2023-05-21T01:23:54;98951.78;;;13.01;100.00
54389;BME280;40975;50.390;8.640;2023-05-21T01:26:20;98943.78;;;13.09;100.00
54389;BME280;40975;50.390;8.640;2023-05-21T01:28:46;98943.97;;;13.07;100.00
54389;BME280;40975;50.390;8.640;2023-05-21T01:31:30;98938.31;;;13.02;100.00
54389;BME280;40975;50.390;8.640;2023-05-21T01:34:00;98945.44;;;13.18;100.00
54389;BME280;40975;50.390;8.640;2023-05-21T01:36:33;98937.63;;;13.09;100.00
54389;BME280;40975;50.390;8.640;2023-05-21T01:39:08;98936.63;;;12.93;100.00
54389;BME280;40975;50.390;8.640;2023-05-21T01:41:42;98945.78;;;12.90;100.00
54389;BME280;40975;50.390;8.640;2023-05-21T01:44:09;98943.47;;;12.96;100.00
54389;BME280;40975;50.390;8.640;2023-05-21T01:46:36;98934.31;;;12.90;100.00
54389;BME280;40975;50.390;8.640;2023-05-21T01:49:04;98938.16;;;12.87;100.00
54389;BME280;40975;50.390;8.640;2023-05-21T01:51:29;98939.16;;;12.86;100.00
54389;BME280;40975;50.390;8.640;2023-05-21T01:53:55;98932.47;;;12.82;100.00
54389;BME280;40975;50.390;8.640;2023-05-21T01:56:20;98936.63;;;12.85;100.00
54389;BME280;40975;50.390;8.640;2023-05-21T01:58:50;98921.31;;;12.70;100.00
54389;BME280;40975;50.390;8.640;2023-05-21T02:01:16;98934.81;;;12.77;100.00
54389;BME280;40975;50.390;8.640;2023-05-21T02:03:41;98943.94;;;12.74;100.00
54389;BME280;40975;50.390;8.640;2023-05-21T02:06:07;98925.81;;;12.70;100.00
54389;BME280;40975;50.390;8.640;2023-05-21T02:08:32;98938.13;;;12.63;100.00
54389;BME280;40975;50.390;8.640;2023-05-21T02:10:57;98934.47;;;12.64;100.00
54389;BME280;40975;50.390;8.640;2023-05-21T02:13:23;98930.13;;;12.63;100.00
54389;BME280;40975;50.390;8.640;2023-05-21T02:15:49;98929.13;;;12.64;100.00
54389;BME280;40975;50.390;8.640;2023-05-21T02:18:15;98930.94;;;12.63;100.00
54389;BME280;40975;50.390;8.640;2023-05-21T02:20:42;98927.16;;;12.74;100.00
54389;BME280;40975;50.390;8.640;2023-05-21T02:23:08;98923.00;;;12.71;100.00
54389;BME280;40975;50.390;8.640;2023-05-21T02:25:33;98924.31;;;12.67;100.00
54389;BME280;40975;50.390;8.640;2023-05-21T02:27:59;98924.81;;;12.71;100.00
54389;BME280;40975;50.390;8.640;2023-05-21T02:30:25;98919.97;;;12.74;100.00
54389;BME280;40975;50.390;8.640;2023-05-21T02:32:51;98930.81;;;12.81;100.00
54389;BME280;40975;50.390;8.640;2023-05-21T02:35:17;98924.97;;;12.86;100.00
54389;BME280;40975;50.390;8.640;2023-05-21T02:37:42;98924.47;;;12.74;100.00
54389;BME280;40975;50.390;8.640;2023-05-21T02:40:08;98922.31;;;12.69;100.00
54389;BME280;40975;50.390;8.640;2023-05-21T02:42:35;98928.81;;;12.75;100.00
54389;BME280;40975;50.390;8.640;2023-05-21T02:45:01;98927.31;;;12.72;100.00
54389;BME280;40975;50.390;8.640;2023-05-21T02:47:27;98922.31;;;12.69;100.00
54389;BME280;40975;50.390;8.640;2023-05-21T02:49:52;98927.97;;;12.66;100.00
54389;BME280;40975;50.390;8.640;2023-05-21T02:52:19;98925.81;;;12.70;100.00
54389;BME280;40975;50.390;8.640;2023-05-21T02:54:46;98923.31;;;12.68;100.00
54389;BME280;40975;50.390;8.640;2023-05-21T02:57:12;98922.63;;;12.66;100.00
54389;BME280;40975;50.390;8.640;2023-05-21T02:59:37;98917.00;;;12.69;100.00
54389;BME280;40975;50.390;8.640;2023-05-21T03:02:03;98916.31;;;12.67;100.00
54389;BME280;40975;50.390;8.640;2023-05-21T03:04:28;98914.81;;;12.65;100.00
54389;BME280;40975;50.390;8.640;2023-05-21T03:06:55;98919.31;;;12.64;100.00
54389;BME280;40975;50.390;8.640;2023-05-21T03:09:21;98914.16;;;12.63;100.00
54389;BME280;40975;50.390;8.640;2023-05-21T03:11:47;98909.16;;;12.59;100.00
54389;BME280;40975;50.390;8.640;2023-05-21T03:14:12;98918.97;;;12.67;100.00
54389;BME280;40975;50.390;8.640;2023-05-21T03:16:38;98901.16;;;12.51;100.00
54389;BME280;40975;50.390;8.640;2023-05-21T03:19:06;98919.31;;;12.64;100.00
54389;BME280;40975;50.390;8.640;2023-05-21T03:21:31;98909.66;;;12.63;100.00
54389;BME280;40975;50.390;8.640;2023-05-21T03:23:58;98907.66;;;12.57;100.00
54389;BME280;40975;50.390;8.640;2023-05-21T03:26:24;98905.16;;;12.55;100.00
54389;BME280;40975;50.390;8.640;2023-05-21T03:28:52;98912.31;;;12.55;100.00
54389;BME280;40975;50.390;8.640;2023-05-21T03:31:18;98908.97;;;12.53;100.00
54389;BME280;40975;50.390;8.640;2023-05-21T03:34:07;98912.97;;;12.49;100.00
54389;BME280;40975;50.390;8.640;2023-05-21T03:36:33;98898.00;;;12.48;100.00
54389;BME280;40975;50.390;8.640;2023-05-21T03:38:58;98914.28;;;12.53;100.00
54389;BME280;40975;50.390;8.640;2023-05-21T03:41:24;98918.81;;;12.60;100.00
54389;BME280;40975;50.390;8.640;2023-05-21T03:43:55;98909.31;;;12.58;100.00
54389;BME280;40975;50.390;8.640;2023-05-21T03:46:24;98921.16;;;12.64;100.00
54389;BME280;40975;50.390;8.640;2023-05-21T03:48:58;98910.31;;;12.65;100.00
54389;BME280;40975;50.390;8.640;2023-05-21T03:51:25;98913.97;;;12.64;100.00
54389;BME280;40975;50.390;8.640;2023-05-21T03:53:51;98912.31;;;12.63;100.00
54389;BME280;40975;50.390;8.640;2023-05-21T03:56:17;98905.19;;;12.64;100.00
54389;BME280;40975;50.390;8.640;2023-05-21T03:58:43;98904.31;;;12.63;100.00
54389;BME280;40975;50.390;8.640;2023-05-21T04:01:08;98909.00;;;12.78;100.00
54389;BME280;40975;50.390;8.640;2023-05-21T04:03:35;98907.69;;;12.82;100.00
54389;BME280;40975;50.390;8.640;2023-05-21T04:06:01;98910.00;;;12.85;100.00
54389;BME280;40975;50.390;8.640;2023-05-21T04:08:27;98909.31;;;12.83;100.00
54389;BME280;40975;50.390;8.640;2023-05-21T04:10:52;98912.50;;;12.78;100.00
54389;BME280;40975;50.390;8.640;2023-05-21T04:13:17;98908.34;;;12.75;100.00
54389;BME280;40975;50.390;8.640;2023-05-21T04:15:43;98913.34;;;12.70;100.00
54389;BME280;40975;50.390;8.640;2023-05-21T04:18:11;98905.50;;;12.69;100.00
54389;BME280;40975;50.390;8.640;2023-05-21T04:20:38;98917.00;;;12.78;100.00
54389;BME280;40975;50.390;8.640;2023-05-21T04:23:03;98912.50;;;12.78;100.00
54389;BME280;40975;50.390;8.640;2023-05-21T04:25:29;98917.34;;;12.91;100.00
54389;BME280;40975;50.390;8.640;2023-05-21T04:27:56;98923.66;;;12.90;100.00
54389;BME280;40975;50.390;8.640;2023-05-21T04:30:21;98924.47;;;12.90;100.00
54389;BME280;40975;50.390;8.640;2023-05-21T04:32:48;98922.16;;;12.87;100.00
54389;BME280;40975;50.390;8.640;2023-05-21T04:35:14;98922.66;;;12.91;100.00
54389;BME280;40975;50.390;8.640;2023-05-21T04:37:40;98927.16;;;12.90;100.00
54389;BME280;40975;50.390;8.640;2023-05-21T04:40:09;98920.66;;;12.93;100.00
54389;BME280;40975;50.390;8.640;2023-05-21T04:42:35;98917.34;;;12.99;100.00
54389;BME280;40975;50.390;8.640;2023-05-21T04:45:02;98927.00;;;13.00;100.00
54389;BME280;40975;50.390;8.640;2023-05-21T04:47:29;98919.31;;;13.05;100.00
54389;BME280;40975;50.390;8.640;2023-05-21T04:49:55;98927.47;;;13.12;100.00
54389;BME280;40975;50.390;8.640;2023-05-21T04:52:20;98921.97;;;13.05;100.00
54389;BME280;40975;50.390;8.640;2023-05-21T04:54:45;98926.81;;;13.10;100.00
54389;BME280;40975;50.390;8.640;2023-05-21T04:57:12;98922.97;;;13.13;100.00
54389;BME280;40975;50.390;8.640;2023-05-21T04:59:37;98923.81;;;13.13;100.00
54389;BME280;40975;50.390;8.640;2023-05-21T05:02:03;98922.63;;;13.16;100.00
54389;BME280;40975;50.390;8.640;2023-05-21T05:04:30;98911.50;;;13.12;100.00
54389;BME280;40975;50.390;8.640;2023-05-21T05:06:55;98925.78;;;13.28;100.00
54389;BME280;40975;50.390;8.640;2023-05-21T05:09:21;98928.28;;;13.37;100.00
54389;BME280;40975;50.390;8.640;2023-05-21T05:11:49;98924.44;;;13.48;100.00
54389;BME280;40975;50.390;8.640;2023-05-21T05:14:14;98933.44;;;13.56;100.00
54389;BME280;40975;50.390;8.640;2023-05-21T05:16:41;98908.63;;;13.47;100.00
54389;BME280;40975;50.390;8.640;2023-05-21T05:19:07;98927.25;;;13.63;100.00
54389;BME280;40975;50.390;8.640;2023-05-21T05:21:33;98931.06;;;13.69;100.00
54389;BME280;40975;50.390;8.640;2023-05-21T05:23:59;98938.88;;;13.79;100.00
54389;BME280;40975;50.390;8.640;2023-05-21T05:26:27;98924.03;;;13.84;100.00
54389;BME280;40975;50.390;8.640;2023-05-21T05:28:53;98933.84;;;13.92;100.00
54389;BME280;40975;50.390;8.640;2023-05-21T05:31:19;98937.13;;;13.94;100.00
54389;BME280;40975;50.390;8.640;2023-05-21T05:33:44;98931.75;;;14.03;100.00
54389;BME280;40975;50.390;8.640;2023-05-21T05:36:10;98936.25;;;14.10;100.00
54389;BME280;40975;50.390;8.640;2023-05-21T05:38:36;98932.38;;;14.21;100.00
54389;BME280;40975;50.390;8.640;2023-05-21T05:41:02;98932.47;;;14.28;100.00
54389;BME280;40975;50.390;8.640;2023-05-21T05:43:27;98928.28;;;14.34;100.00
54389;BME280;40975;50.390;8.640;2023-05-21T05:45:54;98934.75;;;14.39;100.00
54389;BME280;40975;50.390;8.640;2023-05-21T05:48:20;98937.16;;;14.57;100.00
54389;BME280;40975;50.390;8.640;2023-05-21T05:50:46;98940.47;;;14.68;100.00
54389;BME280;40975;50.390;8.640;2023-05-21T05:53:13;98937.72;;;14.76;100.00
54389;BME280;40975;50.390;8.640;2023-05-21T05:55:39;98940.53;;;14.83;100.00
54389;BME280;40975;50.390;8.640;2023-05-21T05:58:05;98943.84;;;14.85;100.00
54389;BME280;40975;50.390;8.640;2023-05-21T06:00:37;98935.97;;;14.91;100.00
54389;BME280;40975;50.390;8.640;2023-05-21T06:03:03;98941.09;;;14.93;100.00
54389;BME280;40975;50.390;8.640;2023-05-21T06:05:29;98939.09;;;14.95;100.00
54389;BME280;40975;50.390;8.640;2023-05-21T06:07:55;98931.75;;;14.97;100.00
54389;BME280;40975;50.390;8.640;2023-05-21T06:10:20;98935.22;;;14.98;100.00
54389;BME280;40975;50.390;8.640;2023-05-21T06:12:46;98937.63;;;15.07;100.00
54389;BME280;40975;50.390;8.640;2023-05-21T06:15:12;98930.56;;;15.15;100.00
54389;BME280;40975;50.390;8.640;2023-05-21T06:17:39;98937.97;;;15.28;100.00
54389;BME280;40975;50.390;8.640;2023-05-21T06:20:07;98940.22;;;15.39;100.00
54389;BME280;40975;50.390;8.640;2023-05-21T06:22:33;98939.38;;;15.68;100.00
54389;BME280;40975;50.390;8.640;2023-05-21T06:24:58;98936.34;;;15.72;100.00
54389;BME280;40975;50.390;8.640;2023-05-21T06:27:24;98944.47;;;15.78;100.00
54389;BME280;40975;50.390;8.640;2023-05-21T06:29:49;98941.53;;;15.88;100.00
54389;BME280;40975;50.390;8.640;2023-05-21T06:32:15;98940.63;;;15.96;100.00
54389;BME280;40975;50.390;8.640;2023-05-21T06:34:40;98941.63;;;16.10;100.00
54389;BME280;40975;50.390;8.640;2023-05-21T06:37:06;98931.00;;;16.16;100.00
54389;BME280;40975;50.390;8.640;2023-05-21T06:39:31;98935.97;;;16.20;100.00
54389;BME280;40975;50.390;8.640;2023-05-21T06:41:57;98932.63;;;16.32;100.00
54389;BME280;40975;50.390;8.640;2023-05-21T06:44:41;98927.88;;;16.50;100.00
54389;BME280;40975;50.390;8.640;2023-05-21T06:47:14;98936.69;;;16.87;100.00
54389;BME280;40975;50.390;8.640;2023-05-21T06:49:40;98929.00;;;17.27;100.00
54389;BME280;40975;50.390;8.640;2023-05-21T06:52:06;98928.69;;;17.72;100.00
54389;BME280;40975;50.390;8.640;2023-05-21T06:54:32;98933.75;;;18.30;98.53
54389;BME280;40975;50.390;8.640;2023-05-21T06:56:59;98936.28;;;18.59;96.39
54389;BME280;40975;50.390;8.640;2023-05-21T06:59:24;98935.31;;;18.93;94.46
54389;BME280;40975;50.390;8.640;2023-05-21T07:01:52;98934.91;;;19.23;92.79
54389;BME280;40975;50.390;8.640;2023-05-21T07:04:17;98939.03;;;19.53;90.67
54389;BME280;40975;50.390;8.640;2023-05-21T07:06:43;98930.34;;;19.37;89.53
54389;BME280;40975;50.390;8.640;2023-05-21T07:09:08;98931.59;;;19.55;88.57
54389;BME280;40975;50.390;8.640;2023-05-21T07:11:35;98929.50;;;19.64;87.68
54389;BME280;40975;50.390;8.640;2023-05-21T07:14:02;98933.66;;;19.60;87.75
54389;BME280;40975;50.390;8.640;2023-05-21T07:16:29;98934.88;;;19.70;88.30
54389;BME280;40975;50.390;8.640;2023-05-21T07:18:55;98932.34;;;19.82;87.30
54389;BME280;40975;50.390;8.640;2023-05-21T07:21:21;98926.69;;;20.11;86.58
54389;BME280;40975;50.390;8.640;2023-05-21T07:23:47;98928.03;;;20.33;84.29
54389;BME280;40975;50.390;8.640;2023-05-21T07:26:13;98931.66;;;20.14;85.86
54389;BME280;40975;50.390;8.640;2023-05-21T07:28:38;98928.19;;;20.00;86.65
54389;BME280;40975;50.390;8.640;2023-05-21T07:31:04;98928.25;;;20.32;86.64
54389;BME280;40975;50.390;8.640;2023-05-21T07:33:35;98929.88;;;20.72;84.73
54389;BME280;40975;50.390;8.640;2023-05-21T07:36:00;98925.22;;;20.54;82.71
54389;BME280;40975;50.390;8.640;2023-05-21T07:38:26;98925.97;;;20.67;82.48
54389;BME280;40975;50.390;8.640;2023-05-21T07:40:51;98926.66;;;21.20;78.58
54389;BME280;40975;50.390;8.640;2023-05-21T07:43:17;98927.00;;;21.49;79.19
54389;BME280;40975;50.390;8.640;2023-05-21T07:45:42;98928.56;;;22.01;76.50
54389;BME280;40975;50.390;8.640;2023-05-21T07:48:08;98929.19;;;22.52;75.16
54389;BME280;40975;50.390;8.640;2023-05-21T07:50:38;98919.03;;;23.20;71.84
54389;BME280;40975;50.390;8.640;2023-05-21T07:53:03;98919.63;;;23.34;69.86
54389;BME280;40975;50.390;8.640;2023-05-21T07:55:30;98916.06;;;23.57;69.02
54389;BME280;40975;50.390;8.640;2023-05-21T07:57:55;98923.94;;;23.95;68.55
54389;BME280;40975;50.390;8.640;2023-05-21T08:00:26;98919.44;;;23.88;67.68
54389;BME280;40975;50.390;8.640;2023-05-21T08:02:55;98911.00;;;24.26;65.71
54389;BME280;40975;50.390;8.640;2023-05-21T08:05:21;98911.44;;;23.82;66.20
54389;BME280;40975;50.390;8.640;2023-05-21T08:07:47;98914.28;;;23.99;68.65
54389;BME280;40975;50.390;8.640;2023-05-21T08:10:13;98912.94;;;24.71;65.49
54389;BME280;40975;50.390;8.640;2023-05-21T08:12:39;98909.59;;;24.98;62.83
54389;BME280;40975;50.390;8.640;2023-05-21T08:15:05;98917.16;;;25.13;64.38
54389;BME280;40975;50.390;8.640;2023-05-21T08:17:36;98906.50;;;24.31;62.87
54389;BME280;40975;50.390;8.640;2023-05-21T08:20:01;98922.25;;;23.94;67.00
54389;BME280;40975;50.390;8.640;2023-05-21T08:22:28;98916.22;;;23.39;67.94
54389;BME280;40975;50.390;8.640;2023-05-21T08:24:54;98922.03;;;23.00;71.93
54389;BME280;40975;50.390;8.640;2023-05-21T08:27:19;98915.28;;;22.79;71.07
54389;BME280;40975;50.390;8.640;2023-05-21T08:29:45;98915.97;;;23.40;72.15
54389;BME280;40975;50.390;8.640;2023-05-21T08:32:11;98914.91;;;23.65;71.37
54389;BME280;40975;50.390;8.640;2023-05-21T08:34:36;98910.59;;;23.93;68.82
54389;BME280;40975;50.390;8.640;2023-05-21T08:37:21;98912.78;;;24.20;67.65
54389;BME280;40975;50.390;8.640;2023-05-21T08:40:11;98918.81;;;24.97;63.18
54389;BME280;40975;50.390;8.640;2023-05-21T08:42:47;98929.91;;;25.86;60.10
54389;BME280;40975;50.390;8.640;2023-05-21T08:45:33;98935.09;;;26.81;58.13
54389;BME280;40975;50.390;8.640;2023-05-21T08:48:03;98933.03;;;27.64;55.18
54389;BME280;40975;50.390;8.640;2023-05-21T08:50:31;98935.81;;;27.37;54.65
54389;BME280;40975;50.390;8.640;2023-05-21T08:53:00;98922.91;;;27.59;55.73
54389;BME280;40975;50.390;8.640;2023-05-21T08:55:26;98924.72;;;27.97;52.68
54389;BME280;40975;50.390;8.640;2023-05-21T08:57:53;98923.47;;;28.15;53.20
54389;BME280;40975;50.390;8.640;2023-05-21T09:00:23;98918.69;;;28.79;53.48
54389;BME280;40975;50.390;8.640;2023-05-21T09:02:50;98921.59;;;29.96;50.18
54389;BME280;40975;50.390;8.640;2023-05-21T09:05:19;98918.31;;;29.94;49.68
54389;BME280;40975;50.390;8.640;2023-05-21T09:07:58;98912.94;;;29.22;50.13
54389;BME280;40975;50.390;8.640;2023-05-21T09:10:45;98913.25;;;30.22;48.05
54389;BME280;40975;50.390;8.640;2023-05-21T09:13:13;98906.22;;;30.95;47.20
54389;BME280;40975;50.390;8.640;2023-05-21T09:15:38;98908.09;;;31.00;47.26
54389;BME280;40975;50.390;8.640;2023-05-21T09:18:05;98907.53;;;31.03;45.63
54389;BME280;40975;50.390;8.640;2023-05-21T09:21:22;98916.53;;;31.62;45.18
54389;BME280;40975;50.390;8.640;2023-05-21T09:23:53;98901.78;;;31.58;46.44
54389;BME280;40975;50.390;8.640;2023-05-21T09:26:20;98901.94;;;31.43;43.73
54389;BME280;40975;50.390;8.640;2023-05-21T09:28:46;98917.25;;;30.85;46.43
54389;BME280;40975;50.390;8.640;2023-05-21T09:31:11;98911.91;;;30.69;44.70
54389;BME280;40975;50.390;8.640;2023-05-21T09:33:44;98907.22;;;30.25;48.65
54389;BME280;40975;50.390;8.640;2023-05-21T09:36:10;98910.38;;;30.48;47.75
54389;BME280;40975;50.390;8.640;2023-05-21T09:38:36;98896.34;;;31.29;45.37
54389;BME280;40975;50.390;8.640;2023-05-21T09:41:03;98905.56;;;31.09;46.94
54389;BME280;40975;50.390;8.640;2023-05-21T09:43:29;98894.16;;;30.62;45.70
54389;BME280;40975;50.390;8.640;2023-05-21T09:45:56;98891.06;;;29.58;49.32
54389;BME280;40975;50.390;8.640;2023-05-21T09:51:18;98885.78;;;27.53;52.58
54389;BME280;40975;50.390;8.640;2023-05-21T09:56:22;98889.25;;;25.96;58.82
54389;BME280;40975;50.390;8.640;2023-05-21T09:58:51;98894.41;;;26.42;58.34
54389;BME280;40975;50.390;8.640;2023-05-21T10:01:18;98888.56;;;27.21;60.48
54389;BME280;40975;50.390;8.640;2023-05-21T10:03:47;98887.50;;;27.27;56.31
54389;BME280;40975;50.390;8.640;2023-05-21T10:06:14;98889.38;;;27.16;55.84
54389;BME280;40975;50.390;8.640;2023-05-21T10:08:43;98875.75;;;27.21;56.47
54389;BME280;40975;50.390;8.640;2023-05-21T10:11:10;98887.38;;;26.46;57.78
54389;BME280;40975;50.390;8.640;2023-05-21T10:13:40;98878.69;;;26.22;59.52
54389;BME280;40975;50.390;8.640;2023-05-21T10:16:08;98889.13;;;26.58;57.95
54389;BME280;40975;50.390;8.640;2023-05-21T10:18:36;98878.53;;;27.26;62.07
54389;BME280;40975;50.390;8.640;2023-05-21T10:21:02;98875.41;;;28.03;58.50
54389;BME280;40975;50.390;8.640;2023-05-21T10:23:28;98881.16;;;28.12;55.27
54389;BME280;40975;50.390;8.640;2023-05-21T10:25:54;98866.22;;;28.41;55.47
54389;BME280;40975;50.390;8.640;2023-05-21T10:28:21;98860.19;;;28.23;54.82
54389;BME280;40975;50.390;8.640;2023-05-21T10:30:47;98862.03;;;28.07;57.65
54389;BME280;40975;50.390;8.640;2023-05-21T10:33:14;98858.53;;;28.17;56.12
54389;BME280;40975;50.390;8.640;2023-05-21T10:35:41;98860.19;;;28.23;52.79
54389;BME280;40975;50.390;8.640;2023-05-21T10:38:08;98860.59;;;27.89;53.92
54389;BME280;40975;50.390;8.640;2023-05-21T10:40:34;98855.25;;;28.10;58.34
54389;BME280;40975;50.390;8.640;2023-05-21T10:46:14;98847.13;;;28.51;57.59
54389;BME280;40975;50.390;8.640;2023-05-21T10:51:54;98843.06;;;28.48;56.95
54389;BME280;40975;50.390;8.640;2023-05-21T10:54:37;98843.88;;;28.54;52.66
54389;BME280;40975;50.390;8.640;2023-05-21T11:00:04;98843.31;;;28.47;55.83
54389;BME280;40975;50.390;8.640;2023-05-21T11:02:32;98840.03;;;28.39;59.68
54389;BME280;40975;50.390;8.640;2023-05-21T11:04:58;98840.06;;;29.01;56.95
54389;BME280;40975;50.390;8.640;2023-05-21T11:07:51;98841.31;;;29.56;54.39
54389;BME280;40975;50.390;8.640;2023-05-21T11:10:29;98834.88;;;28.95;52.44
54389;BME280;40975;50.390;8.640;2023-05-21T11:13:14;98825.28;;;28.41;54.86
54389;BME280;40975;50.390;8.640;2023-05-21T11:18:21;98828.81;;;29.24;53.59
54389;BME280;40975;50.390;8.640;2023-05-21T11:20:50;98826.13;;;28.62;52.50
54389;BME280;40975;50.390;8.640;2023-05-21T11:23:17;98831.06;;;28.85;56.16
54389;BME280;40975;50.390;8.640;2023-05-21T11:25:42;98832.41;;;28.78;55.03
54389;BME280;40975;50.390;8.640;2023-05-21T11:28:08;98828.34;;;28.75;51.86
54389;BME280;40975;50.390;8.640;2023-05-21T11:30:33;98819.84;;;28.56;50.46
54389;BME280;40975;50.390;8.640;2023-05-21T11:35:54;98824.19;;;29.09;54.64
54389;BME280;40975;50.390;8.640;2023-05-21T11:38:20;98814.38;;;29.03;54.90
54389;BME280;40975;50.390;8.640;2023-05-21T11:40:49;98803.75;;;28.85;52.75
54389;BME280;40975;50.390;8.640;2023-05-21T11:43:17;98800.72;;;28.15;52.55
54389;BME280;40975;50.390;8.640;2023-05-21T11:45:42;98809.97;;;28.08;50.19
54389;BME280;40975;50.390;8.640;2023-05-21T11:48:12;98812.66;;;28.03;47.28
54389;BME280;40975;50.390;8.640;2023-05-21T11:50:38;98816.66;;;27.70;48.12
54389;BME280;40975;50.390;8.640;2023-05-21T11:53:06;98812.25;;;27.58;49.09
54389;BME280;40975;50.390;8.640;2023-05-21T11:55:34;98814.00;;;27.96;47.85
54389;BME280;40975;50.390;8.640;2023-05-21T11:58:03;98819.63;;;27.68;44.98
54389;BME280;40975;50.390;8.640;2023-05-21T12:00:30;98820.25;;;27.86;48.92
54389;BME280;40975;50.390;8.640;2023-05-21T12:02:55;98812.94;;;28.07;48.00
54389;BME280;40975;50.390;8.640;2023-05-21T12:05:21;98813.00;;;28.33;49.69
54389;BME280;40975;50.390;8.640;2023-05-21T12:07:47;98820.13;;;28.44;45.57
54389;BME280;40975;50.390;8.640;2023-05-21T12:10:14;98821.38;;;28.00;44.17
54389;BME280;40975;50.390;8.640;2023-05-21T12:12:39;98812.78;;;27.60;43.67
54389;BME280;40975;50.390;8.640;2023-05-21T12:15:05;98812.94;;;28.07;46.52
54389;BME280;40975;50.390;8.640;2023-05-21T12:17:31;98815.72;;;28.22;45.76
54389;BME280;40975;50.390;8.640;2023-05-21T12:19:56;98811.09;;;28.69;43.79
54389;BME280;40975;50.390;8.640;2023-05-21T12:22:23;98805.91;;;28.63;44.13
54389;BME280;40975;50.390;8.640;2023-05-21T12:24:49;98810.31;;;28.48;45.17
54389;BME280;40975;50.390;8.640;2023-05-21T12:27:15;98813.41;;;27.83;45.24
54389;BME280;40975;50.390;8.640;2023-05-21T12:29:43;98812.63;;;27.88;47.54
54389;BME280;40975;50.390;8.640;2023-05-21T12:32:13;98816.81;;;27.48;47.86
54389;BME280;40975;50.390;8.640;2023-05-21T12:34:49;98811.94;;;27.50;48.88
54389;BME280;40975;50.390;8.640;2023-05-21T12:39:48;98806.38;;;28.03;45.52
54389;BME280;40975;50.390;8.640;2023-05-21T12:42:14;98814.19;;;27.68;45.75
54389;BME280;40975;50.390;8.640;2023-05-21T12:44:45;98813.41;;;27.83;47.78
54389;BME280;40975;50.390;8.640;2023-05-21T12:47:11;98812.88;;;27.76;47.46
54389;BME280;40975;50.390;8.640;2023-05-21T12:52:13;98812.91;;;27.97;46.91
54389;BME280;40975;50.390;8.640;2023-05-21T12:54:41;98805.53;;;27.82;45.58
54389;BME280;40975;50.390;8.640;2023-05-21T12:57:13;98797.59;;;27.80;45.80
54389;BME280;40975;50.390;8.640;2023-05-21T12:59:53;98799.34;;;28.12;46.78
54389;BME280;40975;50.390;8.640;2023-05-21T13:02:25;98798.78;;;28.20;45.70
54389;BME280;40975;50.390;8.640;2023-05-21T13:04:57;98807.53;;;28.22;44.98
54389;BME280;40975;50.390;8.640;2023-05-21T13:07:24;98797.38;;;27.97;45.88
54389;BME280;40975;50.390;8.640;2023-05-21T13:09:51;98793.94;;;27.49;47.33
54389;BME280;40975;50.390;8.640;2023-05-21T13:12:21;98801.38;;;27.64;45.94
54389;BME280;40975;50.390;8.640;2023-05-21T13:14:48;98793.53;;;27.88;47.42
54389;BME280;40975;50.390;8.640;2023-05-21T13:17:14;98795.13;;;27.68;47.33
54389;BME280;40975;50.390;8.640;2023-05-21T13:19:39;98793.88;;;27.38;45.33
54389;BME280;40975;50.390;8.640;2023-05-21T13:22:05;98787.69;;;27.05;48.57